Time;durP1;ratioP1;P1;durP2;ratioP2;P2;SDS_P1;SDS_P2;PMS_P1;PMS_P2;Temp;Humidity;BMP_temperature;BMP_pressure;BME280_temperature;BME280_humidity;BME280_pressure;Samples;Min_cycle;Max_cycle;Signal;HPM_P1;HPM_P2
2022/02/02 00:01:40;;;;;;;;;;;21.90;45.00;;;;;;5158496;27;20014;-44
2022/02/02 00:04:10;;;;;;;;;;;21.90;45.00;;;;;;5157596;27;19930;-41
2022/02/02 00:06:45;;;;;;;;;;;21.90;45.00;;;;;;5138155;27;20383;-46
2022/02/02 00:09:16;;;;;;;;;;;21.90;45.10;;;;;;5136781;27;20383;-42
2022/02/02 00:14:26;;;;;;;;;;;21.90;45.00;;;;;;5156660;27;19954;-45
2022/02/02 00:16:59;;;;;;;;;;;21.90;45.00;;;;;;5157577;27;19923;-41
2022/02/02 00:19:42;;;;;;;;;;;21.90;45.10;;;;;;5157169;27;20072;-43
2022/02/02 00:22:21;;;;;;;;;;;21.90;45.00;;;;;;5157993;27;20327;-44
2022/02/02 00:27:18;;;;;;;;;;;21.90;45.00;;;;;;5155963;27;19976;-41
2022/02/02 00:29:56;;;;;;;;;;;21.90;45.00;;;;;;5137244;27;19924;-41
2022/02/02 00:34:59;;;;;;;;;;;21.90;45.00;;;;;;5136296;27;20362;-43
2022/02/02 00:37:26;;;;;;;;;;;21.90;45.00;;;;;;5136175;27;19934;-42
2022/02/02 00:39:53;;;;;;;;;;;21.90;45.00;;;;;;5136874;27;19924;-42
2022/02/02 00:42:20;;;;;;;;;;;21.90;45.00;;;;;;5147294;27;19923;-41
2022/02/02 00:44:53;;;;;;;;;;;21.90;45.00;;;;;;5156072;27;19923;-42
2022/02/02 00:47:23;;;;;;;;;;;21.90;45.00;;;;;;5157049;27;19983;-43
2022/02/02 00:49:54;;;;;;;;;;;21.90;45.00;;;;;;5156701;27;19923;-43
2022/02/02 00:52:22;;;;;;;;;;;21.90;45.00;;;;;;5156806;27;19968;-43
2022/02/02 00:54:49;;;;;;;;;;;21.90;45.00;;;;;;5156930;27;20331;-42
2022/02/02 00:57:16;;;;;;;;;;;21.90;45.00;;;;;;5155356;27;20017;-41
2022/02/02 00:59:43;;;;;;;;;;;21.90;45.00;;;;;;5155665;27;19923;-42
2022/02/02 01:02:12;;;;;;;;;;;21.80;44.90;;;;;;5156716;27;20287;-43
2022/02/02 01:04:40;;;;;;;;;;;21.90;45.00;;;;;;5153805;27;19975;-44
2022/02/02 01:16:05;;;;;;;;;;;21.80;44.90;;;;;;5051458;28;19925;-41
2022/02/02 01:28:36;;;;;;;;;;;21.80;44.90;;;;;;5049941;28;20443;-44
2022/02/02 01:31:04;;;;;;;;;;;21.80;44.90;;;;;;5052032;28;19924;-42
2022/02/02 01:33:31;;;;;;;;;;;21.80;45.00;;;;;;5052044;28;19964;-43
2022/02/02 01:35:58;;;;;;;;;;;21.80;45.00;;;;;;5051911;28;20374;-42
2022/02/02 01:38:29;;;;;;;;;;;21.80;44.90;;;;;;5052090;28;19951;-43
2022/02/02 01:41:02;;;;;;;;;;;21.80;44.90;;;;;;5051965;28;19991;-43
2022/02/02 01:43:41;;;;;;;;;;;21.80;45.00;;;;;;5050493;28;19990;-43
2022/02/02 01:46:13;;;;;;;;;;;21.80;44.90;;;;;;5076593;28;19969;-44
2022/02/02 01:48:48;;;;;;;;;;;21.80;44.90;;;;;;5135248;27;19992;-44
2022/02/02 01:53:59;;;;;;;;;;;21.80;44.90;;;;;;5135148;27;19923;-44
2022/02/02 01:56:26;;;;;;;;;;;21.80;44.90;;;;;;5134985;27;19974;-42
2022/02/02 01:59:23;;;;;;;;;;;21.80;44.90;;;;;;5151692;27;19976;-41
2022/02/02 02:01:50;;;;;;;;;;;21.80;44.90;;;;;;5155742;27;19923;-41
2022/02/02 02:04:17;;;;;;;;;;;21.80;44.90;;;;;;5155621;27;20374;-41
2022/02/02 02:06:44;;;;;;;;;;;21.80;44.90;;;;;;5135314;27;19923;-41
2022/02/02 02:09:11;;;;;;;;;;;21.80;44.90;;;;;;5134625;27;19924;-41
2022/02/02 02:11:43;;;;;;;;;;;21.80;44.90;;;;;;5134877;27;20019;-43
2022/02/02 02:14:58;;;;;;;;;;;21.80;44.90;;;;;;5136990;27;20866;-42
2022/02/02 02:16:57;;;;;;;;;;;21.80;44.90;;;;;;5141348;27;19923;-42
2022/02/02 02:19:24;;;;;;;;;;;21.80;44.90;;;;;;5155070;27;20021;-44
2022/02/02 02:21:53;;;;;;;;;;;21.80;44.90;;;;;;5155307;27;19923;-42
2022/02/02 02:24:20;;;;;;;;;;;21.80;44.90;;;;;;5155497;27;19924;-41
2022/02/02 02:26:48;;;;;;;;;;;21.80;44.90;;;;;;5155337;27;20327;-42
2022/02/02 02:31:56;;;;;;;;;;;21.80;44.90;;;;;;5155074;27;20394;-41
2022/02/02 02:34:39;;;;;;;;;;;21.80;44.90;;;;;;5155435;27;20359;-40
2022/02/02 02:37:34;;;;;;;;;;;21.70;44.80;;;;;;5155372;27;19927;-42
2022/02/02 02:55:49;;;;;;;;;;;21.70;44.80;;;;;;5158765;27;20286;-46
2022/02/02 02:56:35;;;;;;;;;;;21.70;44.80;;;;;;5159162;27;19989;-44
2022/02/02 02:59:13;;;;;;;;;;;21.70;44.80;;;;;;5157820;27;19923;-44
2022/02/02 03:34:45;;;;;;;;;;;21.70;44.90;;;;;;5158193;27;19927;-45
2022/02/02 03:59:01;;;;;;;;;;;21.60;44.90;;;;;;5142850;27;20327;-41
2022/02/02 04:05:19;;;;;;;;;;;21.60;44.80;;;;;;5157704;27;20335;-41
2022/02/02 04:07:09;;;;;;;;;;;21.60;44.80;;;;;;5131241;27;19976;-40
2022/02/02 04:09:38;;;;;;;;;;;21.60;44.80;;;;;;5137368;27;19927;-41
2022/02/02 04:12:15;;;;;;;;;;;21.60;44.80;;;;;;5137021;27;19931;-42
2022/02/02 04:56:09;;;;;;;;;;;21.60;44.90;;;;;;5115630;28;20321;-42
2022/02/02 04:59:07;;;;;;;;;;;21.60;44.90;;;;;;5115532;28;19934;-43
2022/02/02 05:06:38;;;;;;;;;;;21.60;44.90;;;;;;5096998;28;19928;-41
2022/02/02 05:49:41;;;;;;;;;;;21.50;45.00;;;;;;5155906;27;19962;-40
2022/02/02 05:51:50;;;;;;;;;;;21.50;45.00;;;;;;5152612;27;19923;-42
2022/02/02 05:54:18;;;;;;;;;;;21.50;45.00;;;;;;5155846;27;19946;-39
2022/02/02 05:56:54;;;;;;;;;;;21.50;45.00;;;;;;5155506;27;19923;-41
2022/02/02 05:59:22;;;;;;;;;;;21.50;45.00;;;;;;5154853;27;19945;-45
2022/02/02 06:01:54;;;;;;;;;;;21.50;45.00;;;;;;5154458;27;19935;-48
2022/02/02 06:04:23;;;;;;;;;;;21.50;45.00;;;;;;5155406;27;19923;-47
2022/02/02 06:06:51;;;;;;;;;;;21.50;45.00;;;;;;5135791;27;20332;-42
2022/02/02 06:09:23;;;;;;;;;;;21.50;45.00;;;;;;5134603;27;20431;-43
2022/02/02 06:11:51;;;;;;;;;;;21.50;45.00;;;;;;5134912;27;19923;-47
2022/02/02 06:14:19;;;;;;;;;;;21.50;45.00;;;;;;5134354;27;19965;-43
2022/02/02 06:16:46;;;;;;;;;;;21.50;45.00;;;;;;5153161;27;19970;-44
2022/02/02 06:19:13;;;;;;;;;;;21.50;45.00;;;;;;5155157;27;19923;-40
2022/02/02 06:21:42;;;;;;;;;;;21.50;45.00;;;;;;5154877;27;19956;-44
2022/02/02 06:24:15;;;;;;;;;;;21.50;45.00;;;;;;5137074;27;20016;-45
2022/02/02 06:26:46;;;;;;;;;;;21.50;45.00;;;;;;5155621;27;19930;-45
2022/02/02 06:29:13;;;;;;;;;;;21.50;45.00;;;;;;5137102;27;20302;-42
2022/02/02 06:31:41;;;;;;;;;;;21.50;45.00;;;;;;5154032;27;19923;-41
2022/02/02 06:34:09;;;;;;;;;;;21.50;45.00;;;;;;5154281;27;20014;-42
2022/02/02 06:36:38;;;;;;;;;;;21.50;45.00;;;;;;5155335;27;20362;-45
2022/02/02 06:39:06;;;;;;;;;;;21.50;45.00;;;;;;5155014;27;19968;-42
2022/02/02 06:41:34;;;;;;;;;;;21.40;44.90;;;;;;5154903;27;19930;-43
2022/02/02 06:44:03;;;;;;;;;;;21.50;45.60;;;;;;5155392;27;19952;-41
2022/02/02 06:46:33;;;;;;;;;;;21.50;45.00;;;;;;5153966;27;19931;-41
2022/02/02 06:49:01;;;;;;;;;;;21.40;44.90;;;;;;5154115;27;19923;-43
2022/02/02 06:51:37;;;;;;;;;;;21.40;44.90;;;;;;5154668;27;19923;-42
2022/02/02 06:54:13;;;;;;;;;;;21.40;44.90;;;;;;5154851;27;20420;-42
2022/02/02 06:56:48;;;;;;;;;;;21.50;45.00;;;;;;5155159;27;19952;-41
2022/02/02 07:07:42;;;;;;;;;;;21.40;44.90;;;;;;5155028;27;19949;-43
2022/02/02 07:10:23;;;;;;;;;;;21.40;44.90;;;;;;5155005;27;20371;-42
2022/02/02 07:16:01;;;;;;;;;;;21.40;44.90;;;;;;5153493;27;20057;-41
2022/02/02 07:31:53;;;;;;;;;;;21.40;44.90;;;;;;5146875;27;19966;-43
2022/02/02 07:34:37;;;;;;;;;;;21.40;44.80;;;;;;5157687;27;19923;-43
2022/02/02 07:37:05;;;;;;;;;;;21.50;44.90;;;;;;5158448;27;20267;-40
2022/02/02 07:39:34;;;;;;;;;;;21.50;44.90;;;;;;5158017;27;19927;-41
2022/02/02 07:42:04;;;;;;;;;;;21.50;44.90;;;;;;5157685;27;19966;-41
2022/02/02 07:44:36;;;;;;;;;;;21.50;44.90;;;;;;5157905;27;19974;-41
2022/02/02 07:47:07;;;;;;;;;;;21.50;44.90;;;;;;5138705;27;20350;-39
2022/02/02 07:49:36;;;;;;;;;;;21.50;44.80;;;;;;5157027;27;19927;-41
2022/02/02 07:52:04;;;;;;;;;;;21.50;44.80;;;;;;5157673;27;19953;-45
2022/02/02 07:54:36;;;;;;;;;;;21.50;44.80;;;;;;5158028;27;19923;-40
2022/02/02 07:57:24;;;;;;;;;;;21.50;44.80;;;;;;5157580;27;19930;-42
2022/02/02 08:00:04;;;;;;;;;;;21.50;44.80;;;;;;5138515;27;20387;-46
2022/02/02 08:05:19;;;;;;;;;;;21.50;44.80;;;;;;5145432;27;19973;-41
2022/02/02 08:08:35;;;;;;;;;;;21.50;44.80;;;;;;5157242;27;19930;-40
2022/02/02 08:10:36;;;;;;;;;;;21.50;44.80;;;;;;5131878;27;20380;-40
2022/02/02 08:13:15;;;;;;;;;;;21.50;44.80;;;;;;5157633;27;20323;-41
2022/02/02 08:15:43;;;;;;;;;;;21.50;44.80;;;;;;5156906;27;19930;-41
2022/02/02 08:18:10;;;;;;;;;;;21.50;44.80;;;;;;5154809;27;20129;-42
2022/02/02 08:20:37;;;;;;;;;;;21.50;44.80;;;;;;5136917;27;19931;-41
2022/02/02 08:23:04;;;;;;;;;;;21.50;44.80;;;;;;5136298;27;19923;-40
2022/02/02 08:25:32;;;;;;;;;;;21.50;44.80;;;;;;5136717;27;19972;-42
2022/02/02 08:28:02;;;;;;;;;;;21.50;44.80;;;;;;5136602;27;20018;-40
2022/02/02 08:30:29;;;;;;;;;;;21.50;44.70;;;;;;5136663;27;19930;-42
2022/02/02 08:32:59;;;;;;;;;;;21.50;44.70;;;;;;5153532;27;19923;-41
2022/02/02 08:35:27;;;;;;;;;;;21.50;44.70;;;;;;5156517;27;19923;-46
2022/02/02 08:38:08;;;;;;;;;;;21.50;44.70;;;;;;5157267;27;19968;-49
2022/02/02 08:40:40;;;;;;;;;;;21.60;44.80;;;;;;5157503;27;20415;-48
2022/02/02 08:43:13;;;;;;;;;;;21.50;44.70;;;;;;5157206;27;20278;-45
2022/02/02 08:45:43;;;;;;;;;;;21.60;44.70;;;;;;5156806;27;20012;-46
2022/02/02 08:48:15;;;;;;;;;;;21.60;44.70;;;;;;5156064;27;19927;-47
2022/02/02 09:01:04;;;;;;;;;;;21.60;44.70;;;;;;5157183;27;19978;-42
2022/02/02 09:06:18;;;;;;;;;;;21.60;44.70;;;;;;5152326;27;19926;-43
2022/02/02 09:08:48;;;;;;;;;;;21.60;44.70;;;;;;5157229;27;19923;-41
2022/02/02 09:25:06;;;;;;;;;;;21.60;44.60;;;;;;5135619;27;19966;-41
2022/02/02 09:35:52;;;;;;;;;;;21.60;44.70;;;;;;5155280;27;19923;-41
2022/02/02 09:38:19;;;;;;;;;;;21.60;44.60;;;;;;5155718;27;19966;-42
2022/02/02 09:43:25;;;;;;;;;;;21.60;44.60;;;;;;5155981;27;19923;-44
2022/02/02 09:45:59;;;;;;;;;;;21.60;44.60;;;;;;5155966;27;19929;-43
2022/02/02 09:48:31;;;;;;;;;;;21.60;44.60;;;;;;5154601;27;19923;-44
2022/02/02 09:51:05;;;;;;;;;;;21.60;44.60;;;;;;5155147;27;20058;-42
2022/02/02 09:53:42;;;;;;;;;;;21.60;44.60;;;;;;5155561;27;19960;-41
2022/02/02 09:59:19;;;;;;;;;;;21.60;44.70;;;;;;5156260;27;19923;-43
2022/02/02 10:05:01;;;;;;;;;;;21.60;44.70;;;;;;5135692;27;19968;-43
2022/02/02 10:15:29;;;;;;;;;;;21.60;44.50;;;;;;5134557;27;19923;-43
2022/02/02 10:17:57;;;;;;;;;;;21.70;44.60;;;;;;5141609;27;19923;-42
2022/02/02 10:20:28;;;;;;;;;;;21.70;44.50;;;;;;5146503;27;20337;-43
2022/02/02 10:22:57;;;;;;;;;;;21.70;44.50;;;;;;5134262;28;19973;-45
2022/02/02 10:25:31;;;;;;;;;;;21.70;44.50;;;;;;5134450;28;19928;-41
2022/02/02 10:28:12;;;;;;;;;;;21.70;44.40;;;;;;5134307;28;19957;-42
2022/02/02 10:30:40;;;;;;;;;;;21.70;44.40;;;;;;5134680;28;19927;-42
2022/02/02 10:33:10;;;;;;;;;;;21.70;44.40;;;;;;5142075;27;19923;-41
2022/02/02 10:35:40;;;;;;;;;;;21.80;44.40;;;;;;5154649;27;20528;-41
2022/02/02 10:38:27;;;;;;;;;;;21.80;44.30;;;;;;5155440;27;20293;-41
2022/02/02 10:43:45;;;;;;;;;;;21.80;44.30;;;;;;5155282;27;19927;-43
2022/02/02 10:46:13;;;;;;;;;;;21.80;44.30;;;;;;5155046;27;19969;-41
2022/02/02 10:48:56;;;;;;;;;;;21.80;44.20;;;;;;5154442;27;20270;-40
2022/02/02 10:51:33;;;;;;;;;;;21.80;44.30;;;;;;5138042;27;20378;-42
2022/02/02 10:54:16;;;;;;;;;;;21.80;44.30;;;;;;5155235;27;19971;-42
2022/02/02 11:07:24;;;;;;;;;;;21.80;44.30;;;;;;5138064;27;19923;-45
2022/02/02 11:09:52;;;;;;;;;;;21.80;44.30;;;;;;5137913;27;19970;-42
2022/02/02 11:12:32;;;;;;;;;;;21.80;44.30;;;;;;5120184;27;20019;-42
2022/02/02 11:14:59;;;;;;;;;;;21.80;44.30;;;;;;5138154;27;19924;-41
2022/02/02 11:17:33;;;;;;;;;;;21.70;44.20;;;;;;5138439;27;19963;-40
2022/02/02 11:20:01;;;;;;;;;;;21.80;44.30;;;;;;5157001;27;19934;-40
2022/02/02 11:22:32;;;;;;;;;;;21.80;44.30;;;;;;5118775;27;19935;-42
2022/02/02 11:25:02;;;;;;;;;;;21.80;44.30;;;;;;5137670;27;19986;-43
2022/02/02 11:27:49;;;;;;;;;;;21.80;44.30;;;;;;5137519;27;20403;-41
2022/02/02 11:30:25;;;;;;;;;;;21.80;44.20;;;;;;5137645;27;20382;-42
2022/02/02 11:32:55;;;;;;;;;;;21.80;44.20;;;;;;5137734;27;19973;-42
2022/02/02 11:35:52;;;;;;;;;;;21.80;44.20;;;;;;5137722;27;20414;-43
2022/02/02 11:38:38;;;;;;;;;;;21.80;44.20;;;;;;5137835;27;20415;-44
2022/02/02 11:43:42;;;;;;;;;;;21.80;44.20;;;;;;5137246;27;19935;-42
2022/02/02 11:46:17;;;;;;;;;;;21.80;44.20;;;;;;5137305;27;19923;-41
2022/02/02 11:48:52;;;;;;;;;;;21.80;44.10;;;;;;5143426;27;20351;-43
2022/02/02 11:51:40;;;;;;;;;;;21.80;44.10;;;;;;5157086;27;19967;-40
2022/02/02 11:54:08;;;;;;;;;;;21.80;44.10;;;;;;5158039;27;19985;-42
2022/02/02 11:56:53;;;;;;;;;;;21.80;44.10;;;;;;5158075;27;19954;-40
2022/02/02 11:59:42;;;;;;;;;;;21.80;44.10;;;;;;5158068;27;20022;-42
2022/02/02 12:02:45;;;;;;;;;;;21.80;44.10;;;;;;5157586;27;19930;-41
2022/02/02 12:11:59;;;;;;;;;;;21.90;44.10;;;;;;5136874;27;19928;-42
2022/02/02 12:57:48;;;;;;;;;;;22.00;43.80;;;;;;5094907;28;19928;-42
2022/02/02 13:00:24;;;;;;;;;;;22.00;43.80;;;;;;5095255;28;19981;-47
2022/02/02 13:02:51;;;;;;;;;;;22.00;43.90;;;;;;5094878;28;20018;-40
2022/02/02 13:05:24;;;;;;;;;;;22.00;43.90;;;;;;5098914;28;20395;-42
2022/02/02 13:07:52;;;;;;;;;;;22.00;43.90;;;;;;5107497;28;20387;-42
2022/02/02 13:10:23;;;;;;;;;;;22.00;43.90;;;;;;5113912;28;19971;-46
2022/02/02 13:18:05;;;;;;;;;;;;;;;;;;;;;
2022/02/02 13:23:14;;;;;;;;;;;22.00;43.90;;;;;;5154890;27;19923;-41
2022/02/02 13:25:43;;;;;;;;;;;22.00;43.90;;;;;;5156280;27;19923;-41
2022/02/02 13:28:12;;;;;;;;;;;22.00;43.90;;;;;;5156311;27;19923;-41
2022/02/02 13:30:51;;;;;;;;;;;22.00;43.80;;;;;;5155949;27;20394;-41
2022/02/02 13:33:29;;;;;;;;;;;22.00;43.80;;;;;;5156203;27;19927;-45
2022/02/02 13:36:16;;;;;;;;;;;22.00;43.80;;;;;;5155025;27;19931;-42
2022/02/02 13:44:44;;;;;;;;;;;22.10;43.80;;;;;;5155699;27;20367;-41
2022/02/02 13:47:34;;;;;;;;;;;22.10;43.80;;;;;;5155684;27;19972;-43
2022/02/02 13:50:43;;;;;;;;;;;22.10;43.80;;;;;;5146008;27;19927;-43
2022/02/02 14:09:51;;;;;;;;;;;22.10;43.90;;;;;;5155338;27;19969;-42
2022/02/02 14:31:33;;;;;;;;;;;22.10;43.80;;;;;;5155474;27;19968;-45
2022/02/02 14:34:20;;;;;;;;;;;22.10;43.80;;;;;;5142253;27;20006;-43
2022/02/02 14:36:49;;;;;;;;;;;22.10;43.90;;;;;;5158253;27;19923;-43
2022/02/02 14:39:26;;;;;;;;;;;22.10;43.90;;;;;;5142448;27;19924;-43
2022/02/02 14:42:11;;;;;;;;;;;22.10;44.40;;;;;;5139185;27;19923;-44
2022/02/02 14:44:40;;;;;;;;;;;22.10;44.50;;;;;;5139686;27;20304;-45
2022/02/02 14:47:26;;;;;;;;;;;22.10;44.10;;;;;;5138848;27;19927;-43
2022/02/02 14:50:03;;;;;;;;;;;22.10;44.10;;;;;;5120258;27;19951;-40
2022/02/02 14:55:37;;;;;;;;;;;22.10;44.00;;;;;;5159308;27;19923;-41
2022/02/02 15:28:22;;;;;;;;;;;22.10;44.10;;;;;;5137985;27;20311;-42
2022/02/02 15:30:59;;;;;;;;;;;22.10;44.00;;;;;;5137643;27;20374;-41
2022/02/02 15:33:29;;;;;;;;;;;22.00;43.90;;;;;;5137671;27;19930;-43
2022/02/02 15:38:34;;;;;;;;;;;22.10;44.10;;;;;;5157490;27;19923;-45
2022/02/02 15:41:07;;;;;;;;;;;22.00;44.00;;;;;;5158185;27;20457;-42
2022/02/02 15:55:07;;;;;;;;;;;22.00;44.10;;;;;;5157210;27;19923;-44
2022/02/02 16:05:39;;;;;;;;;;;22.00;44.10;;;;;;5148058;27;19967;-41
2022/02/02 16:08:08;;;;;;;;;;;22.00;44.10;;;;;;5136547;27;19924;-45
2022/02/02 16:13:27;;;;;;;;;;;22.00;44.20;;;;;;5137200;27;19923;-41
2022/02/02 16:15:56;;;;;;;;;;;22.00;44.20;;;;;;5137115;27;19923;-43
2022/02/02 16:37:24;;;;;;;;;;;22.00;44.20;;;;;;5156239;27;19924;-42
2022/02/02 16:39:54;;;;;;;;;;;22.00;44.30;;;;;;5156630;27;19927;-45
2022/02/02 16:45:06;;;;;;;;;;;22.00;44.20;;;;;;5157222;27;19923;-39
2022/02/02 16:47:33;;;;;;;;;;;22.00;44.20;;;;;;5156877;27;20439;-43
2022/02/02 16:50:10;;;;;;;;;;;22.00;44.20;;;;;;5156883;27;20477;-42
2022/02/02 16:52:37;;;;;;;;;;;22.00;44.20;;;;;;5155782;27;19923;-41
2022/02/02 16:55:11;;;;;;;;;;;22.00;44.20;;;;;;5156135;27;20322;-45
2022/02/02 17:30:28;;;;;;;;;;;22.10;44.50;;;;;;5156384;27;20026;-45
2022/02/02 17:45:41;;;;;;;;;;;22.20;44.60;;;;;;5135331;27;19934;-44
2022/02/02 18:20:16;;;;;;;;;;;22.10;44.80;;;;;;5119436;27;19923;-43
2022/02/02 18:22:51;;;;;;;;;;;22.10;44.80;;;;;;5138082;27;21342;-41
2022/02/02 18:25:31;;;;;;;;;;;22.10;44.80;;;;;;5151970;27;19926;-42
2022/02/02 18:35:39;;;;;;;;;;;22.10;45.00;;;;;;5134574;28;19928;-41
2022/02/02 18:49:25;;;;;;;;;;;22.10;45.00;;;;;;5154989;27;19974;-42
2022/02/02 19:07:50;;;;;;;;;;;22.10;45.30;;;;;;5134320;28;19927;-44
2022/02/02 19:40:44;;;;;;;;;;;22.00;45.40;;;;;;5061573;28;19928;-43
2022/02/02 19:57:20;;;;;;;;;;;22.00;45.40;;;;;;5115859;27;19969;-43
2022/02/02 20:11:02;;;;;;;;;;;22.00;45.60;;;;;;5073572;28;19989;-41
2022/02/02 20:13:29;;;;;;;;;;;22.00;45.50;;;;;;5073387;28;19929;-40
2022/02/02 20:16:01;;;;;;;;;;;22.00;45.60;;;;;;5073067;28;19964;-42
2022/02/02 20:18:35;;;;;;;;;;;22.00;45.60;;;;;;5057169;28;20023;-42
2022/02/02 20:21:06;;;;;;;;;;;22.00;45.60;;;;;;5073552;28;19990;-41
2022/02/02 20:23:39;;;;;;;;;;;22.00;45.60;;;;;;5072312;28;20032;-42
2022/02/02 20:26:11;;;;;;;;;;;22.00;45.60;;;;;;5073114;28;19924;-42
2022/02/02 20:28:39;;;;;;;;;;;22.00;45.50;;;;;;5073001;28;19931;-41
2022/02/02 20:31:06;;;;;;;;;;;22.00;45.60;;;;;;5073320;28;19930;-42
2022/02/02 20:33:33;;;;;;;;;;;22.00;45.60;;;;;;5073278;28;19925;-43
2022/02/02 20:36:00;;;;;;;;;;;22.00;45.60;;;;;;5073247;28;20403;-44
2022/02/02 20:38:27;;;;;;;;;;;22.00;45.60;;;;;;5069556;28;19971;-42
2022/02/02 20:40:54;;;;;;;;;;;22.00;45.60;;;;;;5133460;27;20316;-42
2022/02/02 20:43:30;;;;;;;;;;;22.00;45.60;;;;;;5135548;27;20382;-43
2022/02/02 20:46:39;;;;;;;;;;;22.00;45.60;;;;;;5136577;27;19924;-42
2022/02/02 21:10:27;;;;;;;;;;;21.90;45.60;;;;;;5126285;27;19923;-41
2022/02/02 21:15:40;;;;;;;;;;;21.90;45.60;;;;;;5119411;27;19947;-40
2022/02/02 21:18:14;;;;;;;;;;;21.90;45.60;;;;;;5120944;27;20336;-43
2022/02/02 21:20:49;;;;;;;;;;;21.90;45.60;;;;;;5135792;27;19966;-41
2022/02/02 21:26:18;;;;;;;;;;;21.90;45.60;;;;;;5149512;27;20038;-41
2022/02/02 21:28:37;;;;;;;;;;;21.90;46.20;;;;;;5155354;27;19923;-41
2022/02/02 21:31:05;;;;;;;;;;;21.90;45.60;;;;;;5156023;27;19923;-42
2022/02/02 21:33:36;;;;;;;;;;;21.90;45.60;;;;;;5137946;27;20018;-43
2022/02/02 21:36:03;;;;;;;;;;;21.90;45.60;;;;;;5155974;27;19922;-44
2022/02/02 21:38:42;;;;;;;;;;;21.90;45.60;;;;;;5155877;27;20011;-44
2022/02/02 21:41:16;;;;;;;;;;;21.90;45.60;;;;;;5155152;27;19927;-42
2022/02/02 21:43:43;;;;;;;;;;;21.90;45.60;;;;;;5141157;27;20018;-45
2022/02/02 21:46:10;;;;;;;;;;;21.90;45.60;;;;;;5134809;27;19930;-41
2022/02/02 21:48:40;;;;;;;;;;;21.90;45.70;;;;;;5135045;27;19923;-41
2022/02/02 21:51:10;;;;;;;;;;;21.90;45.60;;;;;;5135377;27;19923;-43
2022/02/02 21:53:37;;;;;;;;;;;21.90;45.60;;;;;;5135029;27;19924;-40
2022/02/02 21:56:04;;;;;;;;;;;21.90;45.70;;;;;;5129823;27;19923;-40
2022/02/02 21:58:31;;;;;;;;;;;21.90;45.70;;;;;;5136860;27;19927;-41
2022/02/02 22:00:58;;;;;;;;;;;21.90;45.70;;;;;;5155557;27;19923;-40
2022/02/02 22:03:25;;;;;;;;;;;21.90;45.70;;;;;;5155805;27;19923;-43
2022/02/02 22:05:52;;;;;;;;;;;21.90;45.70;;;;;;5142553;27;19928;-40
2022/02/02 22:08:18;;;;;;;;;;;21.90;45.70;;;;;;5135035;27;20298;-42
2022/02/02 22:10:47;;;;;;;;;;;21.90;45.70;;;;;;5144356;27;19927;-43
2022/02/02 22:13:16;;;;;;;;;;;21.90;45.70;;;;;;5154613;27;19944;-44
2022/02/02 22:15:51;;;;;;;;;;;21.80;45.60;;;;;;5155686;27;19923;-46
2022/02/02 22:18:19;;;;;;;;;;;21.80;45.90;;;;;;5155095;27;20381;-42
2022/02/02 22:20:48;;;;;;;;;;;21.80;45.60;;;;;;5155596;27;19930;-42
2022/02/02 22:23:17;;;;;;;;;;;21.80;45.70;;;;;;5155063;27;19923;-44
2022/02/02 22:25:44;;;;;;;;;;;21.80;45.60;;;;;;5154304;27;19923;-47
2022/02/02 22:28:11;;;;;;;;;;;21.80;45.70;;;;;;5154748;27;20341;-43
2022/02/02 22:30:38;;;;;;;;;;;21.80;45.70;;;;;;5155219;27;20412;-42
2022/02/02 22:33:05;;;;;;;;;;;21.80;45.70;;;;;;5155472;27;19927;-42
2022/02/02 22:35:32;;;;;;;;;;;21.80;45.60;;;;;;5155130;27;19924;-43
2022/02/02 22:37:59;;;;;;;;;;;21.80;45.60;;;;;;5155100;27;20427;-44
2022/02/02 22:40:27;;;;;;;;;;;21.80;45.60;;;;;;5154341;27;19923;-43
2022/02/02 22:42:55;;;;;;;;;;;21.80;45.60;;;;;;5154040;27;19923;-46
2022/02/02 22:45:22;;;;;;;;;;;21.80;45.60;;;;;;5154958;27;19934;-44
2022/02/02 22:47:50;;;;;;;;;;;21.80;45.60;;;;;;5155302;27;20010;-47
2022/02/02 22:50:20;;;;;;;;;;;21.80;45.70;;;;;;5155312;27;20286;-42
2022/02/02 22:52:51;;;;;;;;;;;21.80;45.60;;;;;;5155109;27;20316;-44
2022/02/02 22:55:19;;;;;;;;;;;21.80;45.70;;;;;;5154227;27;19963;-41
2022/02/02 22:57:48;;;;;;;;;;;21.80;45.70;;;;;;5159401;27;19999;-43
2022/02/02 23:00:17;;;;;;;;;;;21.80;45.60;;;;;;5138810;27;19927;-42
2022/02/02 23:02:53;;;;;;;;;;;21.80;45.70;;;;;;5139064;27;19923;-41
2022/02/02 23:05:24;;;;;;;;;;;21.80;45.70;;;;;;5146290;27;20006;-42
2022/02/02 23:07:51;;;;;;;;;;;21.80;45.60;;;;;;5158942;27;19923;-41
2022/02/02 23:10:20;;;;;;;;;;;21.80;45.60;;;;;;5158121;27;19975;-41
2022/02/02 23:12:48;;;;;;;;;;;21.80;45.60;;;;;;5140844;27;19923;-43
2022/02/02 23:15:21;;;;;;;;;;;21.80;45.60;;;;;;5158281;27;20327;-41
2022/02/02 23:17:49;;;;;;;;;;;21.80;45.60;;;;;;5158831;27;20298;-40
2022/02/02 23:20:16;;;;;;;;;;;21.80;45.60;;;;;;5158668;27;19923;-43
2022/02/02 23:22:44;;;;;;;;;;;21.80;45.60;;;;;;5158445;27;19965;-41
2022/02/02 23:25:14;;;;;;;;;;;21.80;45.60;;;;;;5158339;27;19927;-42
2022/02/02 23:27:45;;;;;;;;;;;21.80;45.60;;;;;;5157469;27;19933;-39
2022/02/02 23:30:15;;;;;;;;;;;21.80;45.60;;;;;;5156580;27;19975;-42
2022/02/02 23:32:43;;;;;;;;;;;21.80;45.60;;;;;;5158699;27;19990;-42
2022/02/02 23:35:10;;;;;;;;;;;21.80;45.60;;;;;;5158375;27;20013;-46
2022/02/02 23:37:38;;;;;;;;;;;21.80;45.60;;;;;;5158336;27;19976;-44
2022/02/02 23:40:08;;;;;;;;;;;21.70;45.60;;;;;;5158286;27;19923;-40
2022/02/02 23:42:39;;;;;;;;;;;21.70;45.60;;;;;;5157147;27;19923;-43
2022/02/02 23:45:07;;;;;;;;;;;21.70;45.60;;;;;;5157618;27;19923;-42
2022/02/02 23:47:38;;;;;;;;;;;21.70;45.60;;;;;;5158135;27;20006;-41
2022/02/02 23:50:10;;;;;;;;;;;21.70;45.60;;;;;;5158129;27;20017;-44
2022/02/02 23:55:11;;;;;;;;;;;21.70;45.60;;;;;;5159263;27;20301;-43
